sensor_id;sensor_type;location;lat;lon;timestamp;temperature;humidity
15184;DHT22;7693;49.266;7.104;2023-08-17T03:26:19;18.30;99.90
15184;DHT22;7693;49.266;7.104;2023-08-17T03:28:45;18.30;99.90
15184;DHT22;7693;49.266;7.104;2023-08-17T03:31:10;18.40;99.90
15184;DHT22;7693;49.266;7.104;2023-08-17T03:33:36;18.40;99.90
15184;DHT22;7693;49.266;7.104;2023-08-17T03:36:02;18.50;99.90
15184;DHT22;7693;49.266;7.104;2023-08-17T03:38:28;18.50;99.90
15184;DHT22;7693;49.266;7.104;2023-08-17T03:40:54;18.50;99.90
15184;DHT22;7693;49.266;7.104;2023-08-17T03:43:19;18.50;99.90
15184;DHT22;7693;49.266;7.104;2023-08-17T03:45:45;18.50;99.90
15184;DHT22;7693;49.266;7.104;2023-08-17T03:48:11;18.50;99.90
15184;DHT22;7693;49.266;7.104;2023-08-17T06:56:33;18.30;99.90
15184;DHT22;7693;49.266;7.104;2023-08-17T06:58:59;18.30;99.90
15184;DHT22;7693;49.266;7.104;2023-08-17T07:01:25;18.40;99.90
15184;DHT22;7693;49.266;7.104;2023-08-17T07:03:50;18.40;99.90
15184;DHT22;7693;49.266;7.104;2023-08-17T07:06:16;18.50;99.90
15184;DHT22;7693;49.266;7.104;2023-08-17T07:08:41;18.50;99.90
15184;DHT22;7693;49.266;7.104;2023-08-17T07:11:07;18.50;99.90
15184;DHT22;7693;49.266;7.104;2023-08-17T07:13:34;18.50;99.90
15184;DHT22;7693;49.266;7.104;2023-08-17T07:15:59;18.50;99.90
15184;DHT22;7693;49.266;7.104;2023-08-17T07:18:25;18.50;99.90
15184;DHT22;7693;49.266;7.104;2023-08-17T07:20:50;18.60;99.90
15184;DHT22;7693;49.266;7.104;2023-08-17T07:23:16;18.60;99.90
15184;DHT22;7693;49.266;7.104;2023-08-17T07:25:42;18.70;99.90
15184;DHT22;7693;49.266;7.104;2023-08-17T07:28:07;18.70;99.90
15184;DHT22;7693;49.266;7.104;2023-08-17T07:30:33;18.80;99.90
15184;DHT22;7693;49.266;7.104;2023-08-17T07:32:58;18.90;99.90
15184;DHT22;7693;49.266;7.104;2023-08-17T07:35:24;18.90;99.90
15184;DHT22;7693;49.266;7.104;2023-08-17T07:37:49;19.00;99.90
15184;DHT22;7693;49.266;7.104;2023-08-17T07:40:15;19.00;99.90
15184;DHT22;7693;49.266;7.104;2023-08-17T07:42:40;19.10;99.90
15184;DHT22;7693;49.266;7.104;2023-08-17T07:45:06;19.10;99.90
15184;DHT22;7693;49.266;7.104;2023-08-17T07:47:34;19.10;99.90
15184;DHT22;7693;49.266;7.104;2023-08-17T07:50:02;19.10;99.90
15184;DHT22;7693;49.266;7.104;2023-08-17T07:52:27;19.20;99.90
15184;DHT22;7693;49.266;7.104;2023-08-17T07:54:53;19.30;99.90
15184;DHT22;7693;49.266;7.104;2023-08-17T07:57:19;19.30;99.90
15184;DHT22;7693;49.266;7.104;2023-08-17T07:59:44;19.30;99.90
15184;DHT22;7693;49.266;7.104;2023-08-17T08:02:10;19.30;99.90
15184;DHT22;7693;49.266;7.104;2023-08-17T08:04:35;19.40;99.90
15184;DHT22;7693;49.266;7.104;2023-08-17T08:07:01;19.40;99.90
15184;DHT22;7693;49.266;7.104;2023-08-17T08:09:26;19.50;99.90
15184;DHT22;7693;49.266;7.104;2023-08-17T08:11:52;19.50;99.90
15184;DHT22;7693;49.266;7.104;2023-08-17T08:14:18;19.60;99.90
15184;DHT22;7693;49.266;7.104;2023-08-17T08:16:43;19.70;99.90
15184;DHT22;7693;49.266;7.104;2023-08-17T08:19:09;19.70;99.90
15184;DHT22;7693;49.266;7.104;2023-08-17T08:21:34;19.70;99.90
15184;DHT22;7693;49.266;7.104;2023-08-17T08:24:00;19.70;99.90
15184;DHT22;7693;49.266;7.104;2023-08-17T08:26:25;19.80;99.90
15184;DHT22;7693;49.266;7.104;2023-08-17T08:28:51;19.80;99.90
15184;DHT22;7693;49.266;7.104;2023-08-17T08:31:16;19.90;99.90
15184;DHT22;7693;49.266;7.104;2023-08-17T08:33:43;20.00;99.90
15184;DHT22;7693;49.266;7.104;2023-08-17T08:36:09;20.10;99.90
15184;DHT22;7693;49.266;7.104;2023-08-17T08:38:34;20.10;99.90
15184;DHT22;7693;49.266;7.104;2023-08-17T08:41:01;20.10;99.90
15184;DHT22;7693;49.266;7.104;2023-08-17T08:43:27;20.20;99.90
15184;DHT22;7693;49.266;7.104;2023-08-17T08:45:54;20.20;99.90
15184;DHT22;7693;49.266;7.104;2023-08-17T08:48:22;20.20;99.90
15184;DHT22;7693;49.266;7.104;2023-08-17T08:50:50;20.20;99.90
15184;DHT22;7693;49.266;7.104;2023-08-17T08:53:17;20.30;99.90
15184;DHT22;7693;49.266;7.104;2023-08-17T08:55:57;20.30;99.90
15184;DHT22;7693;49.266;7.104;2023-08-17T08:58:25;20.40;99.90
15184;DHT22;7693;49.266;7.104;2023-08-17T09:00:51;20.40;99.90
15184;DHT22;7693;49.266;7.104;2023-08-17T09:03:17;20.50;99.90
15184;DHT22;7693;49.266;7.104;2023-08-17T09:05:47;20.50;99.90
15184;DHT22;7693;49.266;7.104;2023-08-17T09:08:15;20.70;99.90
15184;DHT22;7693;49.266;7.104;2023-08-17T09:10:42;20.80;99.90
15184;DHT22;7693;49.266;7.104;2023-08-17T09:13:07;21.00;99.90
15184;DHT22;7693;49.266;7.104;2023-08-17T09:15:34;21.10;99.90
15184;DHT22;7693;49.266;7.104;2023-08-17T09:17:59;21.30;99.90
15184;DHT22;7693;49.266;7.104;2023-08-17T09:20:45;21.50;99.90
15184;DHT22;7693;49.266;7.104;2023-08-17T09:23:13;21.70;99.90
15184;DHT22;7693;49.266;7.104;2023-08-17T09:25:40;21.70;99.90
15184;DHT22;7693;49.266;7.104;2023-08-17T09:28:13;21.70;99.90
15184;DHT22;7693;49.266;7.104;2023-08-17T09:31:02;21.70;99.90
15184;DHT22;7693;49.266;7.104;2023-08-17T09:33:31;21.60;99.90
15184;DHT22;7693;49.266;7.104;2023-08-17T09:35:58;21.60;99.90
15184;DHT22;7693;49.266;7.104;2023-08-17T09:38:25;21.70;99.90
15184;DHT22;7693;49.266;7.104;2023-08-17T09:40:51;21.80;99.90
15184;DHT22;7693;49.266;7.104;2023-08-17T09:43:18;21.90;99.90
15184;DHT22;7693;49.266;7.104;2023-08-17T09:45:44;22.00;99.90
15184;DHT22;7693;49.266;7.104;2023-08-17T09:48:15;22.00;99.90
15184;DHT22;7693;49.266;7.104;2023-08-17T09:50:42;22.10;99.90
15184;DHT22;7693;49.266;7.104;2023-08-17T09:53:13;22.20;99.90
15184;DHT22;7693;49.266;7.104;2023-08-17T09:55:41;22.20;99.90
15184;DHT22;7693;49.266;7.104;2023-08-17T09:58:07;22.30;99.90
15184;DHT22;7693;49.266;7.104;2023-08-17T13:39:49;23.50;99.90
15184;DHT22;7693;49.266;7.104;2023-08-17T13:42:14;23.60;99.90
15184;DHT22;7693;49.266;7.104;2023-08-17T13:44:40;23.70;99.90
15184;DHT22;7693;49.266;7.104;2023-08-17T13:47:06;23.70;99.90
15184;DHT22;7693;49.266;7.104;2023-08-17T13:49:31;23.80;99.90
15184;DHT22;7693;49.266;7.104;2023-08-17T13:51:57;23.90;99.90
15184;DHT22;7693;49.266;7.104;2023-08-17T13:54:23;24.00;99.90
15184;DHT22;7693;49.266;7.104;2023-08-17T13:56:49;24.00;99.90
15184;DHT22;7693;49.266;7.104;2023-08-17T13:59:14;24.00;99.90
15184;DHT22;7693;49.266;7.104;2023-08-17T14:01:40;24.00;99.90
15184;DHT22;7693;49.266;7.104;2023-08-17T14:04:06;24.10;99.90
15184;DHT22;7693;49.266;7.104;2023-08-17T14:06:37;24.20;99.90
15184;DHT22;7693;49.266;7.104;2023-08-17T14:09:03;24.30;99.90
15184;DHT22;7693;49.266;7.104;2023-08-17T14:11:28;24.30;99.90
15184;DHT22;7693;49.266;7.104;2023-08-17T14:13:54;24.30;99.90
15184;DHT22;7693;49.266;7.104;2023-08-17T14:16:19;24.40;99.90
15184;DHT22;7693;49.266;7.104;2023-08-17T14:18:45;24.40;99.90
15184;DHT22;7693;49.266;7.104;2023-08-17T14:21:10;24.40;99.90
15184;DHT22;7693;49.266;7.104;2023-08-17T14:23:38;24.40;99.90
15184;DHT22;7693;49.266;7.104;2023-08-17T14:26:04;24.40;99.90
15184;DHT22;7693;49.266;7.104;2023-08-17T14:28:29;24.30;99.90
15184;DHT22;7693;49.266;7.104;2023-08-17T14:30:55;24.30;99.90
15184;DHT22;7693;49.266;7.104;2023-08-17T14:33:20;24.40;99.90
15184;DHT22;7693;49.266;7.104;2023-08-17T14:35:46;24.60;99.90
15184;DHT22;7693;49.266;7.104;2023-08-17T14:38:12;24.80;99.90
15184;DHT22;7693;49.266;7.104;2023-08-17T14:40:47;25.00;99.90
15184;DHT22;7693;49.266;7.104;2023-08-17T14:43:13;25.10;99.90
15184;DHT22;7693;49.266;7.104;2023-08-17T14:45:42;25.10;99.90
15184;DHT22;7693;49.266;7.104;2023-08-17T14:48:08;25.30;99.90
15184;DHT22;7693;49.266;7.104;2023-08-17T14:50:34;25.40;99.90
15184;DHT22;7693;49.266;7.104;2023-08-17T14:53:00;25.40;99.90
15184;DHT22;7693;49.266;7.104;2023-08-17T14:55:30;25.40;99.90
15184;DHT22;7693;49.266;7.104;2023-08-17T14:57:56;25.30;99.90
15184;DHT22;7693;49.266;7.104;2023-08-17T15:00:23;25.30;99.90
15184;DHT22;7693;49.266;7.104;2023-08-17T15:02:49;25.40;99.90
15184;DHT22;7693;49.266;7.104;2023-08-17T15:05:15;25.40;99.90
15184;DHT22;7693;49.266;7.104;2023-08-17T15:07:41;25.40;99.90
15184;DHT22;7693;49.266;7.104;2023-08-17T15:10:07;25.40;99.90
15184;DHT22;7693;49.266;7.104;2023-08-17T15:12:32;25.30;99.90
15184;DHT22;7693;49.266;7.104;2023-08-17T15:14:58;25.30;99.90
15184;DHT22;7693;49.266;7.104;2023-08-17T15:17:23;25.30;99.90
15184;DHT22;7693;49.266;7.104;2023-08-17T15:19:49;25.30;99.90
15184;DHT22;7693;49.266;7.104;2023-08-17T15:22:15;25.30;99.90
15184;DHT22;7693;49.266;7.104;2023-08-17T15:24:41;25.30;99.90
15184;DHT22;7693;49.266;7.104;2023-08-17T15:27:08;25.30;99.90
15184;DHT22;7693;49.266;7.104;2023-08-17T15:29:34;25.30;99.90
15184;DHT22;7693;49.266;7.104;2023-08-17T15:32:00;25.20;99.90
15184;DHT22;7693;49.266;7.104;2023-08-17T15:34:25;25.20;99.90
15184;DHT22;7693;49.266;7.104;2023-08-17T15:36:51;25.20;99.90
15184;DHT22;7693;49.266;7.104;2023-08-17T15:39:17;25.20;99.90
15184;DHT22;7693;49.266;7.104;2023-08-17T15:41:42;25.20;99.90
15184;DHT22;7693;49.266;7.104;2023-08-17T15:44:08;25.20;99.90
15184;DHT22;7693;49.266;7.104;2023-08-17T15:46:33;25.20;99.90
15184;DHT22;7693;49.266;7.104;2023-08-17T15:48:59;25.10;99.90
15184;DHT22;7693;49.266;7.104;2023-08-17T15:51:25;25.20;99.90
15184;DHT22;7693;49.266;7.104;2023-08-17T15:53:53;25.20;99.90
15184;DHT22;7693;49.266;7.104;2023-08-17T15:56:19;25.20;99.90
15184;DHT22;7693;49.266;7.104;2023-08-17T15:58:44;25.30;99.90
15184;DHT22;7693;49.266;7.104;2023-08-17T16:01:10;25.20;99.90
15184;DHT22;7693;49.266;7.104;2023-08-17T16:03:36;25.30;99.90
15184;DHT22;7693;49.266;7.104;2023-08-17T16:06:02;25.30;99.90
15184;DHT22;7693;49.266;7.104;2023-08-17T16:08:27;25.30;99.90
15184;DHT22;7693;49.266;7.104;2023-08-17T16:10:53;25.30;99.90
15184;DHT22;7693;49.266;7.104;2023-08-17T16:13:18;25.30;99.90
15184;DHT22;7693;49.266;7.104;2023-08-17T16:15:44;25.30;99.90
15184;DHT22;7693;49.266;7.104;2023-08-17T16:18:09;25.30;99.90
15184;DHT22;7693;49.266;7.104;2023-08-17T16:20:35;25.30;99.90
15184;DHT22;7693;49.266;7.104;2023-08-17T16:23:01;25.40;99.90
15184;DHT22;7693;49.266;7.104;2023-08-17T16:25:27;25.40;99.90
15184;DHT22;7693;49.266;7.104;2023-08-17T16:27:53;25.50;99.90
15184;DHT22;7693;49.266;7.104;2023-08-17T16:30:19;25.50;99.90
15184;DHT22;7693;49.266;7.104;2023-08-17T16:32:44;25.50;99.90
15184;DHT22;7693;49.266;7.104;2023-08-17T16:35:10;25.60;99.90
15184;DHT22;7693;49.266;7.104;2023-08-17T16:37:36;25.60;99.90
15184;DHT22;7693;49.266;7.104;2023-08-17T16:40:01;25.60;99.90
15184;DHT22;7693;49.266;7.104;2023-08-17T16:42:29;25.60;99.90
15184;DHT22;7693;49.266;7.104;2023-08-17T16:44:54;25.60;99.90
15184;DHT22;7693;49.266;7.104;2023-08-17T16:47:20;25.70;99.90
15184;DHT22;7693;49.266;7.104;2023-08-17T16:49:47;25.70;99.90
15184;DHT22;7693;49.266;7.104;2023-08-17T16:52:12;25.80;99.90
15184;DHT22;7693;49.266;7.104;2023-08-17T16:54:38;25.80;99.90
15184;DHT22;7693;49.266;7.104;2023-08-17T16:57:04;25.80;99.90
15184;DHT22;7693;49.266;7.104;2023-08-17T16:59:29;25.70;99.90
15184;DHT22;7693;49.266;7.104;2023-08-17T17:01:56;25.70;99.90
15184;DHT22;7693;49.266;7.104;2023-08-17T17:04:22;25.60;99.90
15184;DHT22;7693;49.266;7.104;2023-08-17T17:06:48;25.60;99.90
15184;DHT22;7693;49.266;7.104;2023-08-17T17:09:13;25.60;99.90
15184;DHT22;7693;49.266;7.104;2023-08-17T17:11:39;25.50;99.90
15184;DHT22;7693;49.266;7.104;2023-08-17T17:14:04;25.50;99.90
15184;DHT22;7693;49.266;7.104;2023-08-17T17:16:30;25.50;99.90
15184;DHT22;7693;49.266;7.104;2023-08-17T17:18:56;25.50;99.90
15184;DHT22;7693;49.266;7.104;2023-08-17T17:21:21;25.50;99.90
15184;DHT22;7693;49.266;7.104;2023-08-17T17:23:47;25.50;99.90
15184;DHT22;7693;49.266;7.104;2023-08-17T17:26:13;25.50;99.90
15184;DHT22;7693;49.266;7.104;2023-08-17T17:28:39;25.50;99.90
15184;DHT22;7693;49.266;7.104;2023-08-17T17:31:04;25.40;99.90
15184;DHT22;7693;49.266;7.104;2023-08-17T17:33:30;25.40;99.90
15184;DHT22;7693;49.266;7.104;2023-08-17T17:35:56;25.30;99.90
15184;DHT22;7693;49.266;7.104;2023-08-17T17:38:22;25.20;99.90
15184;DHT22;7693;49.266;7.104;2023-08-17T17:40:47;25.20;99.90
15184;DHT22;7693;49.266;7.104;2023-08-17T17:43:13;25.10;99.90
15184;DHT22;7693;49.266;7.104;2023-08-17T17:45:39;25.10;99.90
15184;DHT22;7693;49.266;7.104;2023-08-17T17:48:04;25.10;99.90
15184;DHT22;7693;49.266;7.104;2023-08-17T17:50:31;25.00;99.90
15184;DHT22;7693;49.266;7.104;2023-08-17T17:52:56;25.00;99.90
15184;DHT22;7693;49.266;7.104;2023-08-17T17:55:22;24.90;99.90
15184;DHT22;7693;49.266;7.104;2023-08-17T17:57:48;24.90;99.90
15184;DHT22;7693;49.266;7.104;2023-08-17T18:00:13;24.80;99.90
15184;DHT22;7693;49.266;7.104;2023-08-17T18:02:39;24.80;99.90
15184;DHT22;7693;49.266;7.104;2023-08-17T18:05:05;24.70;99.90
15184;DHT22;7693;49.266;7.104;2023-08-17T18:07:31;24.70;99.90
15184;DHT22;7693;49.266;7.104;2023-08-17T18:09:57;24.60;99.90
15184;DHT22;7693;49.266;7.104;2023-08-17T18:12:22;24.60;99.90
15184;DHT22;7693;49.266;7.104;2023-08-17T18:14:48;24.50;99.90
15184;DHT22;7693;49.266;7.104;2023-08-17T18:17:14;24.50;99.90
15184;DHT22;7693;49.266;7.104;2023-08-17T18:19:40;24.40;99.90
15184;DHT22;7693;49.266;7.104;2023-08-17T18:22:06;24.40;99.90
15184;DHT22;7693;49.266;7.104;2023-08-17T18:24:31;24.40;99.90
15184;DHT22;7693;49.266;7.104;2023-08-17T18:26:57;24.40;99.90
15184;DHT22;7693;49.266;7.104;2023-08-17T18:29:23;24.30;99.90
15184;DHT22;7693;49.266;7.104;2023-08-17T18:31:49;24.30;99.90
15184;DHT22;7693;49.266;7.104;2023-08-17T18:34:15;24.20;99.90
15184;DHT22;7693;49.266;7.104;2023-08-17T18:36:41;24.20;99.90
15184;DHT22;7693;49.266;7.104;2023-08-17T18:39:06;24.10;99.90
15184;DHT22;7693;49.266;7.104;2023-08-17T18:41:33;24.00;99.90
15184;DHT22;7693;49.266;7.104;2023-08-17T18:43:58;23.90;99.90
15184;DHT22;7693;49.266;7.104;2023-08-17T18:46:24;23.90;99.90
15184;DHT22;7693;49.266;7.104;2023-08-17T18:48:50;23.80;99.90
15184;DHT22;7693;49.266;7.104;2023-08-17T18:51:16;23.70;99.90
15184;DHT22;7693;49.266;7.104;2023-08-17T18:53:43;23.70;99.90
15184;DHT22;7693;49.266;7.104;2023-08-17T18:56:09;23.60;99.90
15184;DHT22;7693;49.266;7.104;2023-08-17T18:58:34;23.60;99.90
15184;DHT22;7693;49.266;7.104;2023-08-17T19:01:00;23.50;99.90
15184;DHT22;7693;49.266;7.104;2023-08-17T19:03:25;23.40;99.90
15184;DHT22;7693;49.266;7.104;2023-08-17T19:05:55;23.40;99.90
15184;DHT22;7693;49.266;7.104;2023-08-17T19:08:21;23.30;99.90
15184;DHT22;7693;49.266;7.104;2023-08-17T19:10:46;23.20;99.90
15184;DHT22;7693;49.266;7.104;2023-08-17T19:13:12;23.20;99.90
15184;DHT22;7693;49.266;7.104;2023-08-17T19:15:40;23.10;99.90
15184;DHT22;7693;49.266;7.104;2023-08-17T19:18:07;23.10;99.90
15184;DHT22;7693;49.266;7.104;2023-08-17T19:20:33;23.10;99.90
15184;DHT22;7693;49.266;7.104;2023-08-17T19:22:59;23.10;99.90
15184;DHT22;7693;49.266;7.104;2023-08-17T19:25:25;23.00;99.90
15184;DHT22;7693;49.266;7.104;2023-08-17T19:27:51;23.00;99.90
15184;DHT22;7693;49.266;7.104;2023-08-17T19:30:17;23.00;99.90
15184;DHT22;7693;49.266;7.104;2023-08-17T19:32:43;23.00;99.90
15184;DHT22;7693;49.266;7.104;2023-08-17T19:35:09;23.00;99.90
15184;DHT22;7693;49.266;7.104;2023-08-17T19:37:34;22.90;99.90
15184;DHT22;7693;49.266;7.104;2023-08-17T19:40:00;22.90;99.90
15184;DHT22;7693;49.266;7.104;2023-08-17T19:42:26;22.90;99.90
15184;DHT22;7693;49.266;7.104;2023-08-17T19:44:51;22.80;99.90
15184;DHT22;7693;49.266;7.104;2023-08-17T19:47:17;22.80;99.90
15184;DHT22;7693;49.266;7.104;2023-08-17T19:49:44;22.80;99.90
15184;DHT22;7693;49.266;7.104;2023-08-17T19:52:10;22.80;99.90
15184;DHT22;7693;49.266;7.104;2023-08-17T19:54:36;22.70;99.90
15184;DHT22;7693;49.266;7.104;2023-08-17T19:57:02;22.70;99.90
15184;DHT22;7693;49.266;7.104;2023-08-17T19:59:28;22.70;99.90
15184;DHT22;7693;49.266;7.104;2023-08-17T20:01:54;22.60;99.90
15184;DHT22;7693;49.266;7.104;2023-08-17T20:04:19;22.60;99.90
15184;DHT22;7693;49.266;7.104;2023-08-17T20:06:45;22.50;99.90
15184;DHT22;7693;49.266;7.104;2023-08-17T20:09:11;22.50;99.90
15184;DHT22;7693;49.266;7.104;2023-08-17T20:11:37;22.50;99.90
15184;DHT22;7693;49.266;7.104;2023-08-17T20:14:03;22.40;99.90
15184;DHT22;7693;49.266;7.104;2023-08-17T20:16:29;22.50;99.90
15184;DHT22;7693;49.266;7.104;2023-08-17T20:18:55;22.40;99.90
15184;DHT22;7693;49.266;7.104;2023-08-17T20:21:20;22.40;99.90
15184;DHT22;7693;49.266;7.104;2023-08-17T20:23:46;22.40;99.90
15184;DHT22;7693;49.266;7.104;2023-08-17T20:26:12;22.30;99.90
15184;DHT22;7693;49.266;7.104;2023-08-17T20:28:37;22.30;99.90
15184;DHT22;7693;49.266;7.104;2023-08-17T20:31:04;22.30;99.90
15184;DHT22;7693;49.266;7.104;2023-08-17T20:33:29;22.30;99.90
15184;DHT22;7693;49.266;7.104;2023-08-17T20:35:55;22.30;99.90
15184;DHT22;7693;49.266;7.104;2023-08-17T20:38:22;22.20;99.90
15184;DHT22;7693;49.266;7.104;2023-08-17T20:40:47;22.20;99.90
15184;DHT22;7693;49.266;7.104;2023-08-17T20:43:13;22.20;99.90
15184;DHT22;7693;49.266;7.104;2023-08-17T20:45:40;22.10;99.90
15184;DHT22;7693;49.266;7.104;2023-08-17T20:48:07;22.10;99.90
15184;DHT22;7693;49.266;7.104;2023-08-17T20:50:38;22.10;99.90
15184;DHT22;7693;49.266;7.104;2023-08-17T20:53:04;22.10;99.90
15184;DHT22;7693;49.266;7.104;2023-08-17T20:55:33;22.10;99.90
15184;DHT22;7693;49.266;7.104;2023-08-17T20:57:59;22.10;99.90
15184;DHT22;7693;49.266;7.104;2023-08-17T21:00:25;22.10;99.90
15184;DHT22;7693;49.266;7.104;2023-08-17T21:02:51;22.00;99.90
15184;DHT22;7693;49.266;7.104;2023-08-17T21:05:16;22.10;99.90
15184;DHT22;7693;49.266;7.104;2023-08-17T21:07:42;22.00;99.90
15184;DHT22;7693;49.266;7.104;2023-08-17T21:10:07;22.00;99.90
15184;DHT22;7693;49.266;7.104;2023-08-17T21:12:33;22.00;99.90
15184;DHT22;7693;49.266;7.104;2023-08-17T21:14:59;22.00;99.90
15184;DHT22;7693;49.266;7.104;2023-08-17T21:17:25;22.00;99.90
15184;DHT22;7693;49.266;7.104;2023-08-17T21:19:51;21.90;99.90
15184;DHT22;7693;49.266;7.104;2023-08-17T21:22:16;21.90;99.90
15184;DHT22;7693;49.266;7.104;2023-08-17T21:24:42;21.90;99.90
15184;DHT22;7693;49.266;7.104;2023-08-17T21:27:08;21.80;99.90
15184;DHT22;7693;49.266;7.104;2023-08-17T21:29:33;21.80;99.90
15184;DHT22;7693;49.266;7.104;2023-08-17T21:31:59;21.80;99.90
15184;DHT22;7693;49.266;7.104;2023-08-17T21:34:24;21.80;99.90
15184;DHT22;7693;49.266;7.104;2023-08-17T21:36:50;21.80;99.90
15184;DHT22;7693;49.266;7.104;2023-08-17T21:39:15;21.70;99.90
15184;DHT22;7693;49.266;7.104;2023-08-17T21:41:41;21.70;99.90
15184;DHT22;7693;49.266;7.104;2023-08-17T21:44:07;21.70;99.90
15184;DHT22;7693;49.266;7.104;2023-08-17T21:46:33;21.70;99.90
15184;DHT22;7693;49.266;7.104;2023-08-17T21:48:58;21.60;99.90
15184;DHT22;7693;49.266;7.104;2023-08-17T21:51:24;21.60;99.90
15184;DHT22;7693;49.266;7.104;2023-08-17T21:53:49;21.60;99.90
15184;DHT22;7693;49.266;7.104;2023-08-17T21:56:15;21.60;99.90
15184;DHT22;7693;49.266;7.104;2023-08-17T21:58:41;21.60;99.90
15184;DHT22;7693;49.266;7.104;2023-08-17T22:01:07;21.50;99.90
15184;DHT22;7693;49.266;7.104;2023-08-17T22:03:32;21.50;99.90
15184;DHT22;7693;49.266;7.104;2023-08-17T22:05:58;21.50;99.90
15184;DHT22;7693;49.266;7.104;2023-08-17T22:08:29;21.40;99.90
15184;DHT22;7693;49.266;7.104;2023-08-17T22:10:55;21.40;99.90
15184;DHT22;7693;49.266;7.104;2023-08-17T22:13:20;21.40;99.90
15184;DHT22;7693;49.266;7.104;2023-08-17T22:15:46;21.30;99.90
15184;DHT22;7693;49.266;7.104;2023-08-17T22:18:11;21.30;99.90
15184;DHT22;7693;49.266;7.104;2023-08-17T22:20:40;21.30;99.90
15184;DHT22;7693;49.266;7.104;2023-08-17T22:23:06;21.30;99.90
15184;DHT22;7693;49.266;7.104;2023-08-17T22:25:31;21.30;99.90
15184;DHT22;7693;49.266;7.104;2023-08-17T22:27:57;21.20;99.90
